sensor_id;sensor_type;location;lat;lon;timestamp;pressure;altitude;pressure_sealevel;temperature;humidity
71384;BME280;61466;52.166;5.004;2023-02-02T00:01:47;102194.38;;;10.73;65.09
71384;BME280;61466;52.166;5.004;2023-02-02T00:04:18;102198.94;;;10.73;65.01
71384;BME280;61466;52.166;5.004;2023-02-02T00:06:44;102197.91;;;10.74;65.08
71384;BME280;61466;52.166;5.004;2023-02-02T00:09:12;102203.25;;;10.74;65.03
71384;BME280;61466;52.166;5.004;2023-02-02T00:11:38;102194.38;;;10.73;65.06
71384;BME280;61466;52.166;5.004;2023-02-02T00:14:03;102198.94;;;10.73;65.19
71384;BME280;61466;52.166;5.004;2023-02-02T00:18:59;102207.44;;;10.70;65.29
71384;BME280;61466;52.166;5.004;2023-02-02T00:21:24;102210.91;;;10.70;65.42
71384;BME280;61466;52.166;5.004;2023-02-02T00:23:50;102219.16;;;10.69;65.45
71384;BME280;61466;52.166;5.004;2023-02-02T00:26:16;102211.72;;;10.71;65.58
71384;BME280;61466;52.166;5.004;2023-02-02T00:28:42;102210.34;;;10.68;65.83
71384;BME280;61466;52.166;5.004;2023-02-02T00:31:07;102209.97;;;10.64;66.00
71384;BME280;61466;52.166;5.004;2023-02-02T00:33:33;102218.00;;;10.64;65.99
71384;BME280;61466;52.166;5.004;2023-02-02T00:35:58;102218.13;;;10.70;65.89
71384;BME280;61466;52.166;5.004;2023-02-02T00:38:24;102210.22;;;10.63;66.42
71384;BME280;61466;52.166;5.004;2023-02-02T00:40:49;102212.53;;;10.59;66.25
71384;BME280;61466;52.166;5.004;2023-02-02T00:43:14;102214.63;;;10.57;66.24
71384;BME280;61466;52.166;5.004;2023-02-02T00:45:40;102220.31;;;10.49;66.21
71384;BME280;61466;52.166;5.004;2023-02-02T00:48:05;102220.56;;;10.48;66.11
71384;BME280;61466;52.166;5.004;2023-02-02T00:50:31;102227.03;;;10.40;65.97
71384;BME280;61466;52.166;5.004;2023-02-02T00:52:56;102221.09;;;10.38;65.95
71384;BME280;61466;52.166;5.004;2023-02-02T00:55:23;102214.22;;;10.30;66.06
71384;BME280;61466;52.166;5.004;2023-02-02T00:57:49;102223.47;;;10.28;66.15
71384;BME280;61466;52.166;5.004;2023-02-02T01:00:17;102215.34;;;10.22;66.10
71384;BME280;61466;52.166;5.004;2023-02-02T01:02:42;102225.66;;;10.19;66.19
71384;BME280;61466;52.166;5.004;2023-02-02T01:05:10;102224.94;;;10.12;66.42
71384;BME280;61466;52.166;5.004;2023-02-02T01:07:35;102217.97;;;10.11;66.37
71384;BME280;61466;52.166;5.004;2023-02-02T01:10:00;102217.63;;;10.07;66.72
71384;BME280;61466;52.166;5.004;2023-02-02T01:12:26;102219.81;;;10.10;66.63
71384;BME280;61466;52.166;5.004;2023-02-02T01:14:51;102229.72;;;10.10;67.08
71384;BME280;61466;52.166;5.004;2023-02-02T01:17:16;102220.28;;;10.07;66.96
71384;BME280;61466;52.166;5.004;2023-02-02T01:19:42;102224.72;;;10.13;66.78
71384;BME280;61466;52.166;5.004;2023-02-02T01:22:08;102223.09;;;10.12;66.92
71384;BME280;61466;52.166;5.004;2023-02-02T01:24:33;102221.81;;;10.15;66.91
71384;BME280;61466;52.166;5.004;2023-02-02T01:26:59;102192.97;;;10.05;67.03
71384;BME280;61466;52.166;5.004;2023-02-02T01:29:25;102218.22;;;10.21;66.81
71384;BME280;61466;52.166;5.004;2023-02-02T01:31:50;102205.44;;;10.23;66.96
71384;BME280;61466;52.166;5.004;2023-02-02T01:34:16;102204.16;;;10.25;67.13
71384;BME280;61466;52.166;5.004;2023-02-02T01:36:41;102202.56;;;10.24;67.43
71384;BME280;61466;52.166;5.004;2023-02-02T01:39:07;102201.75;;;10.24;67.35
71384;BME280;61466;52.166;5.004;2023-02-02T01:41:32;102216.88;;;10.30;67.42
71384;BME280;61466;52.166;5.004;2023-02-02T01:44:00;102211.53;;;10.30;67.51
71384;BME280;61466;52.166;5.004;2023-02-02T01:46:31;102206.78;;;10.32;67.52
71384;BME280;61466;52.166;5.004;2023-02-02T01:49:15;102213.19;;;10.31;67.61
71384;BME280;61466;52.166;5.004;2023-02-02T01:51:52;102213.78;;;10.33;67.53
71384;BME280;61466;52.166;5.004;2023-02-02T01:54:22;102216.22;;;10.35;67.68
71384;BME280;61466;52.166;5.004;2023-02-02T01:56:54;102212.50;;;10.36;67.83
71384;BME280;61466;52.166;5.004;2023-02-02T01:59:21;102220.03;;;10.39;67.62
71384;BME280;61466;52.166;5.004;2023-02-02T02:01:47;102212.03;;;10.39;67.86
71384;BME280;61466;52.166;5.004;2023-02-02T02:04:14;102209.13;;;10.40;67.59
71384;BME280;61466;52.166;5.004;2023-02-02T02:06:40;102208.09;;;10.41;67.79
71384;BME280;61466;52.166;5.004;2023-02-02T02:09:06;102205.06;;;10.38;67.51
71384;BME280;61466;52.166;5.004;2023-02-02T02:11:33;102219.38;;;10.43;67.65
71384;BME280;61466;52.166;5.004;2023-02-02T02:14:04;102210.53;;;10.43;67.66
71384;BME280;61466;52.166;5.004;2023-02-02T02:18:10;102210.53;;;10.43;67.63
71384;BME280;61466;52.166;5.004;2023-02-02T02:20:34;102203.19;;;10.38;67.55
71384;BME280;61466;52.166;5.004;2023-02-02T02:23:43;102215.06;;;10.42;67.47
71384;BME280;61466;52.166;5.004;2023-02-02T02:32:52;102210.31;;;10.44;66.94
71384;BME280;61466;52.166;5.004;2023-02-02T02:35:32;102208.31;;;10.40;66.94
71384;BME280;61466;52.166;5.004;2023-02-02T02:38:13;102199.22;;;10.41;66.91
71384;BME280;61466;52.166;5.004;2023-02-02T02:40:47;102202.06;;;10.46;66.81
71384;BME280;61466;52.166;5.004;2023-02-02T02:43:20;102191.78;;;10.43;66.69
71384;BME280;61466;52.166;5.004;2023-02-02T02:45:47;102185.63;;;10.42;66.70
71384;BME280;61466;52.166;5.004;2023-02-02T02:48:13;102183.78;;;10.43;66.72
71384;BME280;61466;52.166;5.004;2023-02-02T02:50:38;102186.34;;;10.38;66.67
71384;BME280;61466;52.166;5.004;2023-02-02T02:53:08;102183.88;;;10.36;66.63
71384;BME280;61466;52.166;5.004;2023-02-02T02:55:45;102195.16;;;10.38;66.56
71384;BME280;61466;52.166;5.004;2023-02-02T02:58:20;102177.13;;;10.34;66.49
71384;BME280;61466;52.166;5.004;2023-02-02T03:01:20;102185.63;;;10.31;66.51
71384;BME280;61466;52.166;5.004;2023-02-02T03:04:06;102180.50;;;10.29;66.62
71384;BME280;61466;52.166;5.004;2023-02-02T03:09:11;102188.88;;;10.33;66.58
71384;BME280;61466;52.166;5.004;2023-02-02T03:11:39;102196.91;;;10.33;66.51
71384;BME280;61466;52.166;5.004;2023-02-02T03:14:05;102200.97;;;10.35;66.52
71384;BME280;61466;52.166;5.004;2023-02-02T03:16:34;102214.13;;;10.37;66.64
71384;BME280;61466;52.166;5.004;2023-02-02T03:19:00;102223.06;;;10.31;66.65
71384;BME280;61466;52.166;5.004;2023-02-02T03:21:25;102218.75;;;10.30;66.70
71384;BME280;61466;52.166;5.004;2023-02-02T03:23:51;102233.88;;;10.36;66.65
71384;BME280;61466;52.166;5.004;2023-02-02T03:26:16;102233.41;;;10.39;66.60
71384;BME280;61466;52.166;5.004;2023-02-02T03:28:42;102233.78;;;10.31;66.86
71384;BME280;61466;52.166;5.004;2023-02-02T03:31:07;102217.53;;;10.25;67.13
71384;BME280;61466;52.166;5.004;2023-02-02T03:33:34;102224.25;;;10.35;66.94
71384;BME280;61466;52.166;5.004;2023-02-02T03:36:01;102230.53;;;10.40;66.49
71384;BME280;61466;52.166;5.004;2023-02-02T03:38:26;102231.47;;;10.46;66.38
71384;BME280;61466;52.166;5.004;2023-02-02T03:40:51;102230.66;;;10.45;66.24
71384;BME280;61466;52.166;5.004;2023-02-02T03:43:21;102230.41;;;10.47;66.12
71384;BME280;61466;52.166;5.004;2023-02-02T03:45:46;102216.00;;;10.48;66.31
71384;BME280;61466;52.166;5.004;2023-02-02T03:48:12;102226.25;;;10.51;66.24
71384;BME280;61466;52.166;5.004;2023-02-02T03:50:37;102228.91;;;10.51;66.23
71384;BME280;61466;52.166;5.004;2023-02-02T03:53:02;102226.25;;;10.51;66.17
71384;BME280;61466;52.166;5.004;2023-02-02T03:55:29;102223.81;;;10.50;66.15
71384;BME280;61466;52.166;5.004;2023-02-02T03:57:54;102232.06;;;10.48;66.26
71384;BME280;61466;52.166;5.004;2023-02-02T04:00:20;102224.63;;;10.50;66.22
71384;BME280;61466;52.166;5.004;2023-02-02T04:02:45;102227.31;;;10.50;65.96
71384;BME280;61466;52.166;5.004;2023-02-02T04:05:10;102211.25;;;10.50;66.23
71384;BME280;61466;52.166;5.004;2023-02-02T04:07:36;102224.16;;;10.53;65.94
71384;BME280;61466;52.166;5.004;2023-02-02T04:10:02;102218.59;;;10.55;66.07
71384;BME280;61466;52.166;5.004;2023-02-02T04:12:28;102218.59;;;10.55;66.00
71384;BME280;61466;52.166;5.004;2023-02-02T04:14:53;102213.22;;;10.55;65.88
71384;BME280;61466;52.166;5.004;2023-02-02T04:17:18;102213.34;;;10.60;65.78
71384;BME280;61466;52.166;5.004;2023-02-02T04:19:44;102214.63;;;10.57;65.70
71384;BME280;61466;52.166;5.004;2023-02-02T04:22:09;102216.28;;;10.58;65.80
71384;BME280;61466;52.166;5.004;2023-02-02T04:24:34;102213.44;;;10.53;65.86
71384;BME280;61466;52.166;5.004;2023-02-02T04:27:00;102227.56;;;10.60;65.46
71384;BME280;61466;52.166;5.004;2023-02-02T04:29:25;102228.38;;;10.61;65.64
71384;BME280;61466;52.166;5.004;2023-02-02T04:31:51;102222.06;;;10.55;65.73
71384;BME280;61466;52.166;5.004;2023-02-02T04:34:16;102225.91;;;10.59;65.67
71384;BME280;61466;52.166;5.004;2023-02-02T04:36:41;102219.53;;;10.60;65.61
71384;BME280;61466;52.166;5.004;2023-02-02T04:39:10;102213.00;;;10.56;65.72
71384;BME280;61466;52.166;5.004;2023-02-02T04:41:35;102220.09;;;10.62;65.47
71384;BME280;61466;52.166;5.004;2023-02-02T04:44:01;102219.28;;;10.62;65.53
71384;BME280;61466;52.166;5.004;2023-02-02T04:46:26;102217.66;;;10.61;65.64
71384;BME280;61466;52.166;5.004;2023-02-02T04:48:52;102221.03;;;10.56;65.51
71384;BME280;61466;52.166;5.004;2023-02-02T04:51:18;102212.16;;;10.56;65.63
71384;BME280;61466;52.166;5.004;2023-02-02T04:53:43;102223.13;;;10.54;65.74
71384;BME280;61466;52.166;5.004;2023-02-02T04:56:12;102214.19;;;10.60;65.58
71384;BME280;61466;52.166;5.004;2023-02-02T04:58:38;102213.59;;;10.58;65.61
71384;BME280;61466;52.166;5.004;2023-02-02T05:01:11;102230.91;;;10.56;65.81
71384;BME280;61466;52.166;5.004;2023-02-02T05:03:37;102232.91;;;10.60;65.76
71384;BME280;61466;52.166;5.004;2023-02-02T05:06:03;102240.94;;;10.60;65.66
71384;BME280;61466;52.166;5.004;2023-02-02T05:08:29;102240.94;;;10.60;65.67
71384;BME280;61466;52.166;5.004;2023-02-02T05:10:54;102245.81;;;10.63;65.75
71384;BME280;61466;52.166;5.004;2023-02-02T05:13:20;102240.09;;;10.60;65.50
71384;BME280;61466;52.166;5.004;2023-02-02T05:15:45;102245.22;;;10.61;65.76
71384;BME280;61466;52.166;5.004;2023-02-02T05:18:11;102248.50;;;10.63;65.62
71384;BME280;61466;52.166;5.004;2023-02-02T05:20:36;102243.84;;;10.59;65.88
71384;BME280;61466;52.166;5.004;2023-02-02T05:23:01;102248.50;;;10.63;65.52
71384;BME280;61466;52.166;5.004;2023-02-02T05:25:26;102250.38;;;10.63;65.68
71384;BME280;61466;52.166;5.004;2023-02-02T05:27:52;102248.03;;;10.66;65.69
71384;BME280;61466;52.166;5.004;2023-02-02T05:30:17;102241.75;;;10.61;65.70
71384;BME280;61466;52.166;5.004;2023-02-02T05:32:42;102239.41;;;10.53;65.87
71384;BME280;61466;52.166;5.004;2023-02-02T05:35:09;102240.69;;;10.62;65.66
71384;BME280;61466;52.166;5.004;2023-02-02T05:37:34;102240.69;;;10.62;65.65
71384;BME280;61466;52.166;5.004;2023-02-02T05:40:00;102242.09;;;10.64;65.51
71384;BME280;61466;52.166;5.004;2023-02-02T05:42:25;102232.66;;;10.62;65.50
71384;BME280;61466;52.166;5.004;2023-02-02T05:44:50;102241.50;;;10.62;65.44
71384;BME280;61466;52.166;5.004;2023-02-02T05:47:16;102245.44;;;10.60;65.63
71384;BME280;61466;52.166;5.004;2023-02-02T05:49:41;102251.38;;;10.62;65.71
71384;BME280;61466;52.166;5.004;2023-02-02T05:52:08;102251.63;;;10.60;65.77
71384;BME280;61466;52.166;5.004;2023-02-02T05:54:39;102247.53;;;10.58;65.85
71384;BME280;61466;52.166;5.004;2023-02-02T05:57:04;102245.22;;;10.61;65.84
71384;BME280;61466;52.166;5.004;2023-02-02T05:59:30;102244.16;;;10.62;65.80
71384;BME280;61466;52.166;5.004;2023-02-02T06:01:55;102243.47;;;10.55;66.02
71384;BME280;61466;52.166;5.004;2023-02-02T06:04:21;102256.41;;;10.58;65.92
71384;BME280;61466;52.166;5.004;2023-02-02T06:06:46;102245.94;;;10.57;66.12
71384;BME280;61466;52.166;5.004;2023-02-02T06:09:12;102246.84;;;10.62;65.97
71384;BME280;61466;52.166;5.004;2023-02-02T06:11:37;102258.03;;;10.59;66.20
71384;BME280;61466;52.166;5.004;2023-02-02T06:14:03;102250.81;;;10.60;66.31
71384;BME280;61466;52.166;5.004;2023-02-02T06:16:29;102256.53;;;10.63;66.20
71384;BME280;61466;52.166;5.004;2023-02-02T06:18:54;102249.19;;;10.59;66.25
71384;BME280;61466;52.166;5.004;2023-02-02T06:21:19;102251.63;;;10.60;66.48
71384;BME280;61466;52.166;5.004;2023-02-02T06:23:47;102256.75;;;10.62;66.37
71384;BME280;61466;52.166;5.004;2023-02-02T06:26:13;102268.84;;;10.64;66.36
71384;BME280;61466;52.166;5.004;2023-02-02T06:28:39;102263.97;;;10.61;66.54
71384;BME280;61466;52.166;5.004;2023-02-02T06:31:06;102286.66;;;10.59;66.73
71384;BME280;61466;52.166;5.004;2023-02-02T06:33:31;102274.56;;;10.56;66.70
71384;BME280;61466;52.166;5.004;2023-02-02T06:35:59;102281.06;;;10.60;66.52
71384;BME280;61466;52.166;5.004;2023-02-02T06:38:25;102285.97;;;10.63;66.49
71384;BME280;61466;52.166;5.004;2023-02-02T06:40:50;102300.50;;;10.68;66.61
71384;BME280;61466;52.166;5.004;2023-02-02T06:43:15;102292.00;;;10.59;66.92
71384;BME280;61466;52.166;5.004;2023-02-02T06:45:41;102296.06;;;10.61;66.86
71384;BME280;61466;52.166;5.004;2023-02-02T06:48:06;102299.34;;;10.63;66.83
71384;BME280;61466;52.166;5.004;2023-02-02T06:50:36;102299.34;;;10.63;66.98
71384;BME280;61466;52.166;5.004;2023-02-02T06:53:02;102313.53;;;10.64;67.04
71384;BME280;61466;52.166;5.004;2023-02-02T06:55:28;102308.75;;;10.66;66.86
71384;BME280;61466;52.166;5.004;2023-02-02T06:57:57;102306.19;;;10.59;67.19
71384;BME280;61466;52.166;5.004;2023-02-02T07:00:23;102303.16;;;10.56;67.27
71384;BME280;61466;52.166;5.004;2023-02-02T07:02:49;102304.41;;;10.53;67.69
71384;BME280;61466;52.166;5.004;2023-02-02T07:05:14;102308.75;;;10.54;67.68
71384;BME280;61466;52.166;5.004;2023-02-02T07:07:40;102301.16;;;10.51;67.75
71384;BME280;61466;52.166;5.004;2023-02-02T07:10:05;102291.16;;;10.47;67.83
71384;BME280;61466;52.166;5.004;2023-02-02T07:12:31;102293.94;;;10.52;67.95
71384;BME280;61466;52.166;5.004;2023-02-02T07:14:56;102289.44;;;10.52;68.02
71384;BME280;61466;52.166;5.004;2023-02-02T07:17:23;102299.06;;;10.53;67.68
71384;BME280;61466;52.166;5.004;2023-02-02T07:19:48;102301.41;;;10.50;67.86
71384;BME280;61466;52.166;5.004;2023-02-02T07:22:14;102301.63;;;10.48;67.83
71384;BME280;61466;52.166;5.004;2023-02-02T07:24:40;102300.81;;;10.48;67.61
71384;BME280;61466;52.166;5.004;2023-02-02T07:27:05;102310.09;;;10.45;67.62
71384;BME280;61466;52.166;5.004;2023-02-02T07:29:31;102313.81;;;10.44;67.72
71384;BME280;61466;52.166;5.004;2023-02-02T07:31:56;102328.16;;;10.50;67.63
71384;BME280;61466;52.166;5.004;2023-02-02T07:34:21;102325.69;;;10.48;67.50
71384;BME280;61466;52.166;5.004;2023-02-02T07:36:47;102320.56;;;10.47;67.34
71384;BME280;61466;52.166;5.004;2023-02-02T07:39:12;102332.44;;;10.51;67.38
71384;BME280;61466;52.166;5.004;2023-02-02T07:41:38;102330.16;;;10.54;67.05
71384;BME280;61466;52.166;5.004;2023-02-02T07:44:04;102314.78;;;10.50;67.19
71384;BME280;61466;52.166;5.004;2023-02-02T07:46:30;102329.31;;;10.54;66.98
71384;BME280;61466;52.166;5.004;2023-02-02T07:48:56;102327.69;;;10.53;67.00
71384;BME280;61466;52.166;5.004;2023-02-02T07:51:22;102330.84;;;10.50;66.96
71384;BME280;61466;52.166;5.004;2023-02-02T07:53:50;102338.63;;;10.51;66.79
71384;BME280;61466;52.166;5.004;2023-02-02T07:56:18;102350.72;;;10.54;66.77
71384;BME280;61466;52.166;5.004;2023-02-02T07:58:44;102360.16;;;10.56;66.84
71384;BME280;61466;52.166;5.004;2023-02-02T08:01:12;102353.06;;;10.50;66.80
71384;BME280;61466;52.166;5.004;2023-02-02T08:03:38;102352.59;;;10.53;66.64
71384;BME280;61466;52.166;5.004;2023-02-02T08:08:37;102362.50;;;10.64;66.35
71384;BME280;61466;52.166;5.004;2023-02-02T08:11:03;102353.44;;;10.65;66.35
71384;BME280;61466;52.166;5.004;2023-02-02T08:13:28;102355.16;;;10.60;66.44
71384;BME280;61466;52.166;5.004;2023-02-02T08:15:56;102349.91;;;10.53;66.30
71384;BME280;61466;52.166;5.004;2023-02-02T08:18:23;102353.53;;;10.59;66.45
71384;BME280;61466;52.166;5.004;2023-02-02T08:20:48;102367.03;;;10.64;66.17
71384;BME280;61466;52.166;5.004;2023-02-02T08:23:16;102373.22;;;10.64;66.04
71384;BME280;61466;52.166;5.004;2023-02-02T08:25:47;102371.72;;;10.69;66.18
71384;BME280;61466;52.166;5.004;2023-02-02T08:28:13;102368.44;;;10.66;66.40
71384;BME280;61466;52.166;5.004;2023-02-02T08:30:38;102375.75;;;10.59;66.42
71384;BME280;61466;52.166;5.004;2023-02-02T08:33:04;102381.84;;;10.66;66.17
71384;BME280;61466;52.166;5.004;2023-02-02T08:35:29;102379.03;;;10.61;66.28
71384;BME280;61466;52.166;5.004;2023-02-02T08:37:55;102382.78;;;10.72;66.02
71384;BME280;61466;52.166;5.004;2023-02-02T08:40:20;102391.19;;;10.76;65.94
71384;BME280;61466;52.166;5.004;2023-02-02T08:42:45;102383.28;;;10.81;65.85
71384;BME280;61466;52.166;5.004;2023-02-02T08:45:14;102389.44;;;10.81;65.97
71384;BME280;61466;52.166;5.004;2023-02-02T08:47:40;102396.34;;;10.89;65.55
71384;BME280;61466;52.166;5.004;2023-02-02T08:50:06;102393.78;;;10.94;65.60
71384;BME280;61466;52.166;5.004;2023-02-02T08:52:31;102398.72;;;10.97;65.44
71384;BME280;61466;52.166;5.004;2023-02-02T08:54:57;102401.97;;;10.99;65.41
71384;BME280;61466;52.166;5.004;2023-02-02T08:57:22;102401.03;;;11.05;65.09
71384;BME280;61466;52.166;5.004;2023-02-02T08:59:47;102401.63;;;11.07;65.23
71384;BME280;61466;52.166;5.004;2023-02-02T09:02:13;102401.75;;;11.13;65.13
71384;BME280;61466;52.166;5.004;2023-02-02T09:04:38;102407.03;;;11.19;65.00
71384;BME280;61466;52.166;5.004;2023-02-02T09:07:04;102411.69;;;11.24;64.97
71384;BME280;61466;52.166;5.004;2023-02-02T09:09:30;102415.53;;;11.28;64.81
71384;BME280;61466;52.166;5.004;2023-02-02T09:11:55;102416.22;;;11.35;64.90
71384;BME280;61466;52.166;5.004;2023-02-02T09:14:20;102416.81;;;11.37;64.70
71384;BME280;61466;52.166;5.004;2023-02-02T09:16:46;102413.44;;;11.42;64.77
71384;BME280;61466;52.166;5.004;2023-02-02T09:19:11;102426.16;;;11.46;64.75
71384;BME280;61466;52.166;5.004;2023-02-02T09:21:36;102422.53;;;11.53;64.73
71384;BME280;61466;52.166;5.004;2023-02-02T09:24:09;102421.97;;;11.51;64.53
71384;BME280;61466;52.166;5.004;2023-02-02T09:26:34;102431.31;;;11.60;64.54
71384;BME280;61466;52.166;5.004;2023-02-02T09:29:04;102435.81;;;11.59;64.61
71384;BME280;61466;52.166;5.004;2023-02-02T09:31:33;102442.03;;;11.60;64.44
71384;BME280;61466;52.166;5.004;2023-02-02T09:34:04;102447.38;;;11.60;64.52
71384;BME280;61466;52.166;5.004;2023-02-02T09:36:31;102447.72;;;11.63;64.47
71384;BME280;61466;52.166;5.004;2023-02-02T09:38:56;102448.56;;;11.64;64.65
71384;BME280;61466;52.166;5.004;2023-02-02T09:49:27;102447.84;;;11.68;64.47
71384;BME280;61466;52.166;5.004;2023-02-02T09:52:02;102446.56;;;11.71;64.43
71384;BME280;61466;52.166;5.004;2023-02-02T09:54:36;102437.00;;;11.75;64.54
71384;BME280;61466;52.166;5.004;2023-02-02T09:57:11;102441.09;;;11.78;64.07
71384;BME280;61466;52.166;5.004;2023-02-02T09:59:40;102451.03;;;11.89;64.10
71384;BME280;61466;52.166;5.004;2023-02-02T10:02:38;102441.56;;;11.86;64.05
71384;BME280;61466;52.166;5.004;2023-02-02T10:05:17;102453.78;;;11.82;64.19
71384;BME280;61466;52.166;5.004;2023-02-02T10:07:50;102458.72;;;11.85;64.31
71384;BME280;61466;52.166;5.004;2023-02-02T10:10:22;102472.69;;;11.87;63.92
71384;BME280;61466;52.166;5.004;2023-02-02T10:13:18;102465.50;;;11.88;63.74
71384;BME280;61466;52.166;5.004;2023-02-02T10:16:06;102464.66;;;11.87;64.13
71384;BME280;61466;52.166;5.004;2023-02-02T10:18:46;102473.72;;;11.86;63.97
71384;BME280;61466;52.166;5.004;2023-02-02T10:21:16;102475.03;;;11.84;63.91
71384;BME280;61466;52.166;5.004;2023-02-02T10:23:45;102475.59;;;11.86;64.00
71384;BME280;61466;52.166;5.004;2023-02-02T10:26:37;102469.44;;;11.85;63.85
71384;BME280;61466;52.166;5.004;2023-02-02T10:29:16;102476.41;;;11.86;64.00
71384;BME280;61466;52.166;5.004;2023-02-02T10:42:48;102491.69;;;11.86;63.68
71384;BME280;61466;52.166;5.004;2023-02-02T10:45:38;102499.97;;;11.84;63.49
71384;BME280;61466;52.166;5.004;2023-02-02T10:48:13;102497.16;;;11.79;63.49
71384;BME280;61466;52.166;5.004;2023-02-02T10:50:42;102494.00;;;11.82;63.70
71384;BME280;61466;52.166;5.004;2023-02-02T10:53:12;102498.09;;;11.85;63.35
71384;BME280;61466;52.166;5.004;2023-02-02T10:55:49;102497.84;;;11.86;63.43
71384;BME280;61466;52.166;5.004;2023-02-02T10:58:39;102503.13;;;11.93;63.42
71384;BME280;61466;52.166;5.004;2023-02-02T11:01:03;102489.88;;;11.98;63.29
71384;BME280;61466;52.166;5.004;2023-02-02T11:03:32;102480.63;;;12.06;63.46
71384;BME280;61466;52.166;5.004;2023-02-02T11:06:00;102488.81;;;12.11;63.22
71384;BME280;61466;52.166;5.004;2023-02-02T11:08:46;102495.31;;;12.15;63.03
71384;BME280;61466;52.166;5.004;2023-02-02T11:11:19;102498.94;;;12.21;62.90
71384;BME280;61466;52.166;5.004;2023-02-02T11:18:42;102498.69;;;12.34;62.08
71384;BME280;61466;52.166;5.004;2023-02-02T11:23:58;102503.25;;;12.34;62.06
71384;BME280;61466;52.166;5.004;2023-02-02T11:26:25;102500.34;;;12.35;62.01
71384;BME280;61466;52.166;5.004;2023-02-02T11:28:54;102494.97;;;12.35;62.06
71384;BME280;61466;52.166;5.004;2023-02-02T11:31:36;102485.41;;;12.27;61.86
71384;BME280;61466;52.166;5.004;2023-02-02T11:34:14;102489.38;;;12.25;61.72
71384;BME280;61466;52.166;5.004;2023-02-02T11:36:57;102487.75;;;12.24;61.82
71384;BME280;61466;52.166;5.004;2023-02-02T11:39:22;102482.25;;;12.19;61.67
71384;BME280;61466;52.166;5.004;2023-02-02T11:41:48;102493.94;;;12.24;61.87
71384;BME280;61466;52.166;5.004;2023-02-02T11:44:23;102490.88;;;12.21;61.98
71384;BME280;61466;52.166;5.004;2023-02-02T11:46:49;102492.41;;;12.17;62.21
71384;BME280;61466;52.166;5.004;2023-02-02T11:49:17;102487.84;;;12.17;61.91
71384;BME280;61466;52.166;5.004;2023-02-02T11:51:56;102490.44;;;12.12;62.10
71384;BME280;61466;52.166;5.004;2023-02-02T11:54:27;102485.28;;;12.11;61.84
71384;BME280;61466;52.166;5.004;2023-02-02T11:56:56;102489.03;;;12.09;62.11
71384;BME280;61466;52.166;5.004;2023-02-02T11:59:28;102488.47;;;12.07;62.25
71384;BME280;61466;52.166;5.004;2023-02-02T12:04:46;102479.81;;;12.05;62.17
71384;BME280;61466;52.166;5.004;2023-02-02T12:07:30;102482.28;;;12.07;62.07
71384;BME280;61466;52.166;5.004;2023-02-02T12:10:10;102479.47;;;12.02;62.06
71384;BME280;61466;52.166;5.004;2023-02-02T12:12:59;102488.56;;;12.01;62.33
71384;BME280;61466;52.166;5.004;2023-02-02T12:15:46;102481.94;;;12.03;62.34
71384;BME280;61466;52.166;5.004;2023-02-02T12:23:48;102475.41;;;11.99;62.47
71384;BME280;61466;52.166;5.004;2023-02-02T12:29:28;102475.28;;;12.06;62.42
71384;BME280;61466;52.166;5.004;2023-02-02T12:32:02;102473.97;;;12.08;62.60
71384;BME280;61466;52.166;5.004;2023-02-02T12:34:46;102475.28;;;12.06;62.45
71384;BME280;61466;52.166;5.004;2023-02-02T12:42:59;102463.97;;;12.04;62.74
71384;BME280;61466;52.166;5.004;2023-02-02T12:49:19;102477.03;;;12.00;63.23
71384;BME280;61466;52.166;5.004;2023-02-02T12:52:21;102473.53;;;12.00;63.57
71384;BME280;61466;52.166;5.004;2023-02-02T12:55:03;102475.88;;;11.96;63.88
71384;BME280;61466;52.166;5.004;2023-02-02T12:57:59;102474.00;;;11.97;64.09
71384;BME280;61466;52.166;5.004;2023-02-02T13:00:47;102470.84;;;12.00;64.34
71384;BME280;61466;52.166;5.004;2023-02-02T13:03:38;102457.31;;;11.95;64.36
71384;BME280;61466;52.166;5.004;2023-02-02T13:11:53;102464.19;;;11.91;65.43
71384;BME280;61466;52.166;5.004;2023-02-02T13:14:22;102465.00;;;11.91;65.52
71384;BME280;61466;52.166;5.004;2023-02-02T13:16:55;102462.81;;;11.88;65.59
71384;BME280;61466;52.166;5.004;2023-02-02T13:19:31;102461.13;;;11.87;65.87
71384;BME280;61466;52.166;5.004;2023-02-02T13:22:01;102463.22;;;11.85;66.14
71384;BME280;61466;52.166;5.004;2023-02-02T13:24:33;102466.63;;;11.80;66.49
71384;BME280;61466;52.166;5.004;2023-02-02T13:27:06;102467.44;;;11.81;66.79
71384;BME280;61466;52.166;5.004;2023-02-02T13:29:44;102466.63;;;11.80;66.74
71384;BME280;61466;52.166;5.004;2023-02-02T13:32:20;102468.59;;;11.73;66.74
71384;BME280;61466;52.166;5.004;2023-02-02T13:34:57;102480.34;;;11.72;67.29
71384;BME280;61466;52.166;5.004;2023-02-02T13:48:14;102473.38;;;11.71;68.15
71384;BME280;61466;52.166;5.004;2023-02-02T13:50:51;102473.16;;;11.73;68.02
71384;BME280;61466;52.166;5.004;2023-02-02T14:01:31;102476.66;;;11.73;68.32
71384;BME280;61466;52.166;5.004;2023-02-02T14:03:58;102479.91;;;11.75;68.36
71384;BME280;61466;52.166;5.004;2023-02-02T14:06:26;102477.81;;;11.77;68.30
71384;BME280;61466;52.166;5.004;2023-02-02T14:08:55;102482.13;;;11.78;68.35
71384;BME280;61466;52.166;5.004;2023-02-02T14:11:37;102476.66;;;11.73;68.38
71384;BME280;61466;52.166;5.004;2023-02-02T14:14:17;102489.81;;;11.75;68.09
71384;BME280;61466;52.166;5.004;2023-02-02T14:19:58;102489.94;;;11.68;68.20
71384;BME280;61466;52.166;5.004;2023-02-02T14:27:56;102494.13;;;11.64;68.40
71384;BME280;61466;52.166;5.004;2023-02-02T14:30:28;102492.22;;;11.53;69.29
71384;BME280;61466;52.166;5.004;2023-02-02T14:33:38;102485.34;;;11.57;68.54
71384;BME280;61466;52.166;5.004;2023-02-02T14:36:12;102495.75;;;11.53;68.61
71384;BME280;61466;52.166;5.004;2023-02-02T14:39:02;102498.53;;;11.46;68.73